createdAt,value
2018-09-15T00:00:48.143Z,0
2018-09-15T00:02:33.076Z,0
2018-09-15T00:03:33.657Z,0
2018-09-15T00:04:34.238Z,0
2018-09-15T00:05:34.869Z,0
2018-09-15T00:06:35.450Z,0
2018-09-15T00:07:36.031Z,0
2018-09-15T00:08:36.661Z,0
2018-09-15T00:09:37.241Z,0
2018-09-15T00:10:37.821Z,0
2018-09-15T00:11:38.401Z,0
2018-09-15T00:12:38.977Z,0
2018-09-15T00:13:39.558Z,0
2018-09-15T00:14:40.138Z,0
2018-09-15T00:15:40.719Z,0
2018-09-15T00:16:41.343Z,0
2018-09-15T00:17:41.923Z,0
2018-09-15T00:18:42.504Z,0
2018-09-15T00:19:43.084Z,0
2018-09-15T00:20:43.662Z,0
2018-09-15T00:21:44.242Z,0
2018-09-15T00:22:44.873Z,0
2018-09-15T00:23:45.443Z,0
2018-09-15T00:24:46.021Z,0
2018-09-15T00:26:31.005Z,0
2018-09-15T00:27:31.589Z,0
2018-09-15T00:28:32.169Z,0
2018-09-15T00:29:32.751Z,0
2018-09-15T00:30:33.332Z,0
2018-09-15T00:31:33.914Z,0
2018-09-15T00:32:34.492Z,0
2018-09-15T00:33:35.074Z,0
2018-09-15T00:34:35.733Z,0
2018-09-15T00:35:36.278Z,0
2018-09-15T00:36:36.854Z,0
2018-09-15T00:37:37.438Z,0
2018-09-15T00:38:38.067Z,0
2018-09-15T00:39:38.648Z,0
2018-09-15T00:40:39.221Z,0
2018-09-15T00:41:39.817Z,0
2018-09-15T00:42:40.378Z,0
2018-09-15T00:43:40.961Z,0
2018-09-15T00:44:41.689Z,0
2018-09-15T00:45:42.268Z,0
2018-09-15T00:46:42.846Z,0
2018-09-15T00:47:43.418Z,0
2018-09-15T00:48:43.994Z,0
2018-09-15T00:50:28.976Z,0
2018-09-15T00:51:29.558Z,0
2018-09-15T00:52:30.134Z,0
2018-09-15T00:53:30.760Z,0
2018-09-15T00:54:31.338Z,0
2018-09-15T00:55:31.963Z,0
2018-09-15T00:56:32.541Z,0
2018-09-15T00:57:33.119Z,0
2018-09-15T00:58:33.698Z,0
2018-09-15T00:59:34.269Z,0
2018-09-15T01:00:34.846Z,0
2018-09-15T01:01:35.475Z,0
2018-09-15T01:02:36.055Z,0
2018-09-15T01:03:36.633Z,0
2018-09-15T01:04:37.208Z,0
2018-09-15T01:05:37.787Z,0
2018-09-15T01:06:38.367Z,0
2018-09-15T01:07:38.947Z,0
2018-09-15T01:08:39.522Z,0
2018-09-15T01:09:40.099Z,0
2018-09-15T01:10:40.727Z,0
2018-09-15T01:11:41.300Z,0
2018-09-15T01:12:41.876Z,0
2018-09-15T01:14:26.890Z,0
2018-09-15T01:15:27.434Z,0
2018-09-15T01:16:28.064Z,0
2018-09-15T01:17:28.644Z,0
2018-09-15T01:18:29.228Z,0
2018-09-15T01:19:29.803Z,0
2018-09-15T01:20:30.432Z,0
2018-09-15T01:21:31.012Z,0
2018-09-15T01:22:31.591Z,0
2018-09-15T01:23:32.163Z,0
2018-09-15T01:24:32.744Z,0
2018-09-15T01:25:33.325Z,0
2018-09-15T01:26:33.904Z,0
2018-09-15T01:27:34.486Z,0
2018-09-15T01:28:35.065Z,0
2018-09-15T01:29:35.636Z,0
2018-09-15T01:30:36.214Z,0
2018-09-15T01:31:36.790Z,0
2018-09-15T01:32:37.418Z,0
2018-09-15T01:33:38.041Z,0
2018-09-15T01:34:38.619Z,0
2018-09-15T01:35:39.196Z,0
2018-09-15T01:36:39.771Z,0
2018-09-15T01:38:24.795Z,0
2018-09-15T01:39:25.378Z,0
2018-09-15T01:40:25.955Z,0
2018-09-15T01:41:26.534Z,0
2018-09-15T01:42:27.113Z,0
2018-09-15T01:43:27.692Z,0
2018-09-15T01:44:28.275Z,0
2018-09-15T01:45:28.953Z,0
2018-09-15T01:46:29.578Z,0
2018-09-15T01:47:30.157Z,0
2018-09-15T01:48:30.730Z,0
2018-09-15T01:49:31.309Z,0
2018-09-15T01:50:31.888Z,0
2018-09-15T01:51:32.466Z,0
2018-09-15T01:52:33.052Z,0
2018-09-15T01:53:33.627Z,0
2018-09-15T01:54:34.260Z,0
2018-09-15T01:55:34.992Z,0
2018-09-15T01:56:35.566Z,0
2018-09-15T01:57:36.197Z,0
2018-09-15T01:58:36.773Z,0
2018-09-15T01:59:37.343Z,0
2018-09-15T02:00:37.920Z,0
2018-09-15T02:02:22.853Z,0
2018-09-15T02:03:23.433Z,0
2018-09-15T02:04:24.063Z,0
2018-09-15T02:05:24.646Z,0
2018-09-15T02:06:25.223Z,0
2018-09-15T02:07:25.803Z,0
2018-09-15T02:08:26.380Z,0
2018-09-15T02:09:26.962Z,0
2018-09-15T02:10:27.542Z,0
2018-09-15T02:11:28.165Z,0
2018-09-15T02:12:28.786Z,0
2018-09-15T02:13:29.366Z,0
2018-09-15T02:14:29.995Z,0
2018-09-15T02:15:30.575Z,0
2018-09-15T02:16:31.146Z,0
2018-09-15T02:17:31.764Z,0
2018-09-15T02:18:32.346Z,0
2018-09-15T02:19:32.930Z,0
2018-09-15T02:20:33.502Z,0
2018-09-15T02:21:34.079Z,0
2018-09-15T02:22:34.725Z,0
2018-09-15T02:23:35.334Z,0
2018-09-15T02:24:35.912Z,0
2018-09-15T02:26:20.841Z,0
2018-09-15T02:27:21.422Z,0
2018-09-15T02:28:22.002Z,0
2018-09-15T02:29:22.583Z,0
2018-09-15T02:30:23.159Z,0
2018-09-15T02:31:23.786Z,0
2018-09-15T02:32:24.410Z,0
2018-09-15T02:33:25.038Z,0
2018-09-15T02:34:25.644Z,0
2018-09-15T02:35:26.240Z,0
2018-09-15T02:36:26.816Z,0
2018-09-15T02:37:27.435Z,0
2018-09-15T02:38:28.025Z,0
2018-09-15T02:39:28.607Z,0
2018-09-15T02:40:29.178Z,0
2018-09-15T02:41:29.756Z,0
2018-09-15T02:42:30.338Z,0
2018-09-15T02:43:30.916Z,0
2018-09-15T02:44:31.490Z,0
2018-09-15T02:45:32.121Z,0
2018-09-15T02:46:32.696Z,0
2018-09-15T02:47:33.275Z,0
2018-09-15T02:48:33.854Z,0
2018-09-15T02:50:18.832Z,0
2018-09-15T02:51:19.463Z,0
2018-09-15T02:52:20.043Z,0
2018-09-15T02:53:20.622Z,0
2018-09-15T02:54:21.202Z,0
2018-09-15T02:55:21.784Z,0
2018-09-15T02:56:22.360Z,0
2018-09-15T02:57:22.992Z,0
2018-09-15T02:58:23.571Z,0
2018-09-15T02:59:24.146Z,0
2018-09-15T03:00:24.727Z,0
2018-09-15T03:01:25.305Z,0
2018-09-15T03:02:25.883Z,0
2018-09-15T03:03:26.466Z,0
2018-09-15T03:04:27.036Z,0
2018-09-15T03:05:27.706Z,0
2018-09-15T03:06:28.287Z,0
2018-09-15T03:07:28.915Z,0
2018-09-15T03:08:29.488Z,0
2018-09-15T03:09:30.106Z,0
2018-09-15T03:10:30.681Z,0
2018-09-15T03:11:31.307Z,0
2018-09-15T03:12:31.934Z,0
2018-09-15T03:14:16.910Z,0
2018-09-15T03:15:17.487Z,0
2018-09-15T03:16:18.067Z,0
2018-09-15T03:17:18.647Z,0
2018-09-15T03:18:19.227Z,0
2018-09-15T03:19:19.808Z,0
2018-09-15T03:20:20.390Z,0
2018-09-15T03:21:20.968Z,0
2018-09-15T03:22:21.548Z,0
2018-09-15T03:23:22.124Z,0
2018-09-15T03:24:22.755Z,0
2018-09-15T03:25:23.385Z,0
2018-09-15T03:26:23.961Z,0
2018-09-15T03:27:24.539Z,0
2018-09-15T03:28:25.117Z,0
2018-09-15T03:29:25.694Z,0
2018-09-15T03:30:26.276Z,0
2018-09-15T03:31:26.857Z,0
2018-09-15T03:32:27.432Z,0
2018-09-15T03:33:28.059Z,0
2018-09-15T03:34:28.638Z,0
2018-09-15T03:35:29.214Z,0
2018-09-15T03:36:29.839Z,0
2018-09-15T03:38:14.822Z,0
2018-09-15T03:39:15.403Z,0
2018-09-15T03:40:15.982Z,0
2018-09-15T03:41:16.583Z,0
2018-09-15T03:42:17.193Z,0
2018-09-15T03:43:17.771Z,0
2018-09-15T03:44:18.401Z,0
2018-09-15T03:45:18.980Z,0
2018-09-15T03:46:19.559Z,0
2018-09-15T03:47:20.131Z,0
2018-09-15T03:48:20.707Z,0
2018-09-15T03:49:21.290Z,0
2018-09-15T03:50:21.867Z,0
2018-09-15T03:51:22.446Z,0
2018-09-15T03:52:23.069Z,0
2018-09-15T03:53:23.644Z,0
2018-09-15T03:54:24.227Z,0
2018-09-15T03:55:24.808Z,0
2018-09-15T03:56:25.432Z,0
2018-09-15T03:57:26.016Z,0
2018-09-15T03:58:26.642Z,0
2018-09-15T03:59:27.217Z,0
2018-09-15T04:00:27.845Z,0
2018-09-15T04:02:12.780Z,0
2018-09-15T04:03:13.457Z,0
2018-09-15T04:04:14.035Z,0
2018-09-15T04:05:14.618Z,0
2018-09-15T04:06:15.241Z,0
2018-09-15T04:07:15.821Z,0
2018-09-15T04:08:16.400Z,0
2018-09-15T04:09:16.980Z,0
2018-09-15T04:10:17.558Z,0
2018-09-15T04:11:18.131Z,0
2018-09-15T04:12:18.708Z,0
2018-09-15T04:13:19.288Z,0
2018-09-15T04:14:19.866Z,0
2018-09-15T04:15:20.445Z,0
2018-09-15T04:16:21.019Z,0
2018-09-15T04:17:21.593Z,0
2018-09-15T04:18:22.226Z,0
2018-09-15T04:19:22.854Z,0
2018-09-15T04:20:23.438Z,0
2018-09-15T04:21:24.012Z,0
2018-09-15T04:22:24.591Z,0
2018-09-15T04:23:25.359Z,0
2018-09-15T04:24:25.942Z,0
2018-09-15T04:26:10.870Z,0
2018-09-15T04:27:11.453Z,0
2018-09-15T04:28:12.030Z,0
2018-09-15T04:29:12.612Z,0
2018-09-15T04:30:13.191Z,0
2018-09-15T04:31:13.821Z,0
2018-09-15T04:32:15.202Z,0
2018-09-15T04:33:15.780Z,0
2018-09-15T04:34:16.359Z,0
2018-09-15T04:35:16.941Z,0
2018-09-15T04:36:17.617Z,0
2018-09-15T04:37:18.202Z,0
2018-09-15T04:38:18.826Z,0
2018-09-15T04:39:19.405Z,0
2018-09-15T04:40:19.981Z,0
2018-09-15T04:41:20.607Z,0
2018-09-15T04:42:21.187Z,0
2018-09-15T04:43:21.766Z,0
2018-09-15T04:44:22.340Z,0
2018-09-15T04:45:23.070Z,0
2018-09-15T04:46:23.650Z,0
2018-09-15T04:47:24.226Z,0
2018-09-15T04:48:24.808Z,0
2018-09-15T04:50:09.735Z,0
2018-09-15T04:51:10.314Z,0
2018-09-15T04:52:10.893Z,0
2018-09-15T04:53:11.498Z,0
2018-09-15T04:54:12.051Z,0
2018-09-15T04:55:12.631Z,0
2018-09-15T04:56:13.210Z,0
2018-09-15T04:57:13.839Z,0
2018-09-15T04:58:14.467Z,0
2018-09-15T04:59:15.044Z,0
2018-09-15T05:00:15.626Z,0
2018-09-15T05:01:16.253Z,0
2018-09-15T05:02:16.829Z,0
2018-09-15T05:03:17.408Z,0
2018-09-15T05:04:17.981Z,0
2018-09-15T05:05:18.602Z,0
2018-09-15T05:06:19.182Z,0
2018-09-15T05:07:19.803Z,0
2018-09-15T05:08:20.384Z,0
2018-09-15T05:09:20.956Z,0
2018-09-15T05:10:21.537Z,0
2018-09-15T05:11:22.161Z,0
2018-09-15T05:12:22.769Z,0
2018-09-15T05:14:07.667Z,0
2018-09-15T05:15:08.245Z,0
2018-09-15T05:16:08.869Z,0
2018-09-15T05:17:09.447Z,0
2018-09-15T05:18:10.022Z,0
2018-09-15T05:19:10.598Z,0
2018-09-15T05:20:11.179Z,0
2018-09-15T05:21:11.754Z,0
2018-09-15T05:22:12.335Z,0
2018-09-15T05:23:12.908Z,0
2018-09-15T05:24:13.484Z,0
2018-09-15T05:25:14.065Z,0
2018-09-15T05:26:14.642Z,0
2018-09-15T05:27:15.221Z,0
2018-09-15T05:28:15.791Z,0
2018-09-15T05:29:16.371Z,0
2018-09-15T05:30:17.102Z,0
2018-09-15T05:31:17.778Z,0
2018-09-15T05:32:18.422Z,0
2018-09-15T05:33:19.132Z,0
2018-09-15T05:34:19.707Z,0
2018-09-15T05:35:20.283Z,0
2018-09-15T05:36:20.908Z,0
2018-09-15T05:38:05.839Z,0
2018-09-15T05:39:06.470Z,0
2018-09-15T05:40:07.048Z,0
2018-09-15T05:41:07.629Z,0
2018-09-15T05:42:08.209Z,0
2018-09-15T05:43:08.789Z,0
2018-09-15T05:44:09.370Z,0
2018-09-15T05:45:09.950Z,0
2018-09-15T05:46:10.531Z,0
2018-09-15T05:47:11.153Z,0
2018-09-15T05:48:11.737Z,0
2018-09-15T05:49:12.368Z,0
2018-09-15T05:50:12.940Z,0
2018-09-15T05:51:13.570Z,0
2018-09-15T05:52:14.144Z,0
2018-09-15T05:53:14.725Z,0
2018-09-15T05:54:15.346Z,0
2018-09-15T05:55:15.972Z,0
2018-09-15T05:56:16.545Z,0
2018-09-15T05:57:17.128Z,0
2018-09-15T05:58:17.708Z,0
2018-09-15T05:59:18.283Z,0
2018-09-15T06:00:18.902Z,0
2018-09-15T06:02:03.791Z,0
2018-09-15T06:03:04.374Z,0
2018-09-15T06:04:04.953Z,0
2018-09-15T06:05:05.539Z,0
2018-09-15T06:06:06.179Z,0
2018-09-15T06:07:06.822Z,0
2018-09-15T06:08:07.377Z,0
2018-09-15T06:09:08.005Z,0
2018-09-15T06:10:08.587Z,0
2018-09-15T06:11:09.169Z,0
2018-09-15T06:12:09.793Z,0
2018-09-15T06:13:10.368Z,0
2018-09-15T06:14:10.999Z,0
2018-09-15T06:15:11.628Z,0
2018-09-15T06:16:12.200Z,0
2018-09-15T06:17:12.827Z,0
2018-09-15T06:18:13.401Z,0
2018-09-15T06:19:13.981Z,0
2018-09-15T06:20:14.562Z,0
2018-09-15T06:21:15.141Z,0
2018-09-15T06:22:15.722Z,0
2018-09-15T06:23:16.396Z,0
2018-09-15T06:24:17.027Z,0
2018-09-15T06:26:01.959Z,0
2018-09-15T06:27:02.541Z,0
2018-09-15T06:28:03.123Z,0
2018-09-15T06:29:03.704Z,0
2018-09-15T06:30:04.334Z,0
2018-09-15T06:31:04.939Z,0
2018-09-15T06:32:05.498Z,0
2018-09-15T06:33:06.077Z,0
2018-09-15T06:34:06.706Z,5
2018-09-15T06:35:07.280Z,5
2018-09-15T06:36:07.865Z,5
2018-09-15T06:37:08.445Z,5
2018-09-15T06:38:09.029Z,5
2018-09-15T06:39:09.611Z,5
2018-09-15T06:40:10.187Z,5
2018-09-15T06:41:10.766Z,5
2018-09-15T06:42:11.402Z,5
2018-09-15T06:43:12.035Z,5
2018-09-15T06:44:12.612Z,5
2018-09-15T06:45:13.190Z,5
2018-09-15T06:46:13.767Z,5
2018-09-15T06:47:14.350Z,5
2018-09-15T06:48:14.922Z,5
2018-09-15T06:49:59.857Z,10
2018-09-15T06:51:00.441Z,10
2018-09-15T06:52:01.032Z,10
2018-09-15T06:53:01.637Z,10
2018-09-15T06:54:02.217Z,10
2018-09-15T06:55:02.801Z,10
2018-09-15T06:56:03.385Z,10
2018-09-15T06:57:03.970Z,10
2018-09-15T06:58:04.552Z,10
2018-09-15T06:59:05.177Z,15
2018-09-15T07:00:05.805Z,15
2018-09-15T07:01:06.390Z,15
2018-09-15T07:02:06.978Z,15
2018-09-15T07:03:07.559Z,15
2018-09-15T07:04:08.181Z,15
2018-09-15T07:05:08.757Z,20
2018-09-15T07:06:09.340Z,20
2018-09-15T07:07:09.920Z,20
2018-09-15T07:08:10.498Z,20
2018-09-15T07:09:11.182Z,20
2018-09-15T07:10:11.762Z,20
2018-09-15T07:11:12.345Z,20
2018-09-15T07:12:12.924Z,20
2018-09-15T07:13:57.857Z,25
2018-09-15T07:14:58.441Z,30
2018-09-15T07:15:59.026Z,30
2018-09-15T07:16:59.609Z,30
2018-09-15T07:18:00.196Z,30
2018-09-15T07:19:00.827Z,30
2018-09-15T07:20:01.448Z,30
2018-09-15T07:21:02.048Z,30
2018-09-15T07:22:02.675Z,30
2018-09-15T07:23:03.260Z,30
2018-09-15T07:24:03.833Z,30
2018-09-15T07:25:04.467Z,35
2018-09-15T07:26:05.099Z,35
2018-09-15T07:27:05.643Z,35
2018-09-15T07:28:06.317Z,35
2018-09-15T07:29:06.892Z,40
2018-09-15T07:30:07.476Z,35
2018-09-15T07:31:08.121Z,35
2018-09-15T07:32:08.687Z,35
2018-09-15T07:33:09.276Z,35
2018-09-15T07:34:09.854Z,35
2018-09-15T07:35:10.433Z,35
2018-09-15T07:36:11.014Z,40
2018-09-15T07:37:56.054Z,40
2018-09-15T07:38:56.634Z,35
2018-09-15T07:39:57.220Z,40
2018-09-15T07:40:57.856Z,45
2018-09-15T07:41:58.440Z,45
2018-09-15T07:42:59.028Z,40
2018-09-15T07:43:59.660Z,45
2018-09-15T07:45:00.244Z,45
2018-09-15T07:46:00.829Z,45
2018-09-15T07:47:01.465Z,45
2018-09-15T07:48:02.054Z,50
2018-09-15T07:49:02.636Z,55
2018-09-15T07:50:03.216Z,55
2018-09-15T07:51:03.803Z,55
2018-09-15T07:52:04.400Z,50
2018-09-15T07:53:05.020Z,50
2018-09-15T07:54:05.545Z,50
2018-09-15T07:55:06.129Z,50
2018-09-15T07:56:06.709Z,50
2018-09-15T07:57:07.292Z,50
2018-09-15T07:58:07.925Z,45
2018-09-15T07:59:08.549Z,45
2018-09-15T08:00:09.133Z,45
2018-09-15T08:01:54.137Z,45
2018-09-15T08:02:54.704Z,45
2018-09-15T08:03:55.334Z,45
2018-09-15T08:04:55.919Z,45
2018-09-15T08:05:56.505Z,45
2018-09-15T08:06:57.093Z,45
2018-09-15T08:07:57.722Z,45
2018-09-15T08:08:58.309Z,45
2018-09-15T08:09:58.944Z,50
2018-09-15T08:10:59.576Z,50
2018-09-15T08:12:00.110Z,50
2018-09-15T08:13:00.694Z,50
2018-09-15T08:14:01.282Z,50
2018-09-15T08:15:01.962Z,50
2018-09-15T08:16:02.538Z,50
2018-09-15T08:17:03.170Z,50
2018-09-15T08:18:03.757Z,50
2018-09-15T08:19:04.345Z,50
2018-09-15T08:20:05.023Z,50
2018-09-15T08:21:05.605Z,50
2018-09-15T08:22:06.189Z,50
2018-09-15T08:23:06.773Z,50
2018-09-15T08:24:07.355Z,50
2018-09-15T08:25:52.294Z,50
2018-09-15T08:26:52.925Z,55
2018-09-15T08:27:53.509Z,55
2018-09-15T08:28:54.142Z,55
2018-09-15T08:29:54.728Z,55
2018-09-15T08:30:55.361Z,55
2018-09-15T08:31:55.962Z,55
2018-09-15T08:32:56.530Z,55
2018-09-15T08:33:57.113Z,55
2018-09-15T08:34:57.698Z,55
2018-09-15T08:35:58.329Z,55
2018-09-15T08:36:58.914Z,55
2018-09-15T08:37:59.500Z,60
2018-09-15T08:39:00.083Z,60
2018-09-15T08:40:00.667Z,60
2018-09-15T08:41:01.291Z,60
2018-09-15T08:42:01.880Z,60
2018-09-15T08:43:02.461Z,60
2018-09-15T08:44:03.040Z,60
2018-09-15T08:45:03.629Z,60
2018-09-15T08:46:04.210Z,60
2018-09-15T08:47:04.789Z,60
2018-09-15T08:48:05.377Z,60
2018-09-15T08:49:50.408Z,60
2018-09-15T08:50:51.041Z,60
2018-09-15T08:51:51.622Z,65
2018-09-15T08:52:52.203Z,65
2018-09-15T08:53:52.784Z,65
2018-09-15T08:54:53.457Z,65
2018-09-15T08:55:54.042Z,65
2018-09-15T08:56:54.625Z,65
2018-09-15T08:57:55.210Z,65
2018-09-15T08:58:55.786Z,65
2018-09-15T08:59:56.374Z,65
2018-09-15T09:00:57.005Z,65
2018-09-15T09:01:57.584Z,70
2018-09-15T09:02:58.169Z,70
2018-09-15T09:03:58.852Z,70
2018-09-15T09:04:59.431Z,70
2018-09-15T09:06:00.017Z,70
2018-09-15T09:07:00.648Z,70
2018-09-15T09:08:01.227Z,70
2018-09-15T09:09:01.813Z,70
2018-09-15T09:10:02.397Z,70
2018-09-15T09:11:03.025Z,70
2018-09-15T09:12:03.857Z,70
2018-09-15T09:13:48.799Z,75
2018-09-15T09:14:49.382Z,75
2018-09-15T09:15:49.968Z,75
2018-09-15T09:16:50.550Z,75
2018-09-15T09:17:51.135Z,75
2018-09-15T09:18:51.721Z,75
2018-09-15T09:19:52.313Z,75
2018-09-15T09:20:52.891Z,75
2018-09-15T09:21:53.476Z,80
2018-09-15T09:22:54.061Z,80
2018-09-15T09:23:54.643Z,80
2018-09-15T09:24:55.227Z,80
2018-09-15T09:25:55.826Z,80
2018-09-15T09:26:56.444Z,80
2018-09-15T09:27:57.078Z,85
2018-09-15T09:28:57.657Z,85
2018-09-15T09:29:58.295Z,85
2018-09-15T09:30:58.930Z,85
2018-09-15T09:31:59.506Z,85
2018-09-15T09:33:00.094Z,85
2018-09-15T09:34:00.678Z,90
2018-09-15T09:35:01.259Z,90
2018-09-15T09:36:01.842Z,90
2018-09-15T09:37:46.931Z,95
2018-09-15T09:38:47.517Z,95
2018-09-15T09:39:48.102Z,95
2018-09-15T09:40:48.688Z,95
2018-09-15T09:41:49.274Z,100
2018-09-15T09:42:49.862Z,80
2018-09-15T09:43:50.447Z,80
2018-09-15T09:44:51.033Z,80
2018-09-15T09:45:51.618Z,85
2018-09-15T09:46:52.252Z,85
2018-09-15T09:47:52.847Z,85
2018-09-15T09:48:53.471Z,85
2018-09-15T09:49:54.100Z,90
2018-09-15T09:50:54.684Z,90
2018-09-15T09:51:55.268Z,90
2018-09-15T09:52:55.853Z,95
2018-09-15T09:53:56.438Z,95
2018-09-15T09:54:57.019Z,95
2018-09-15T09:55:57.604Z,95
2018-09-15T09:56:58.187Z,95
2018-09-15T09:57:58.777Z,100
2018-09-15T09:58:59.356Z,100
2018-09-15T09:59:59.993Z,105
2018-09-15T10:01:44.930Z,110
2018-09-15T10:02:45.520Z,120
2018-09-15T10:03:46.153Z,125
2018-09-15T10:04:46.737Z,130
2018-09-15T10:05:47.324Z,140
2018-09-15T10:06:47.954Z,140
2018-09-15T10:07:48.538Z,145
2018-09-15T10:08:49.122Z,145
2018-09-15T10:09:49.761Z,160
2018-09-15T10:10:50.389Z,165
2018-09-15T10:11:50.972Z,165
2018-09-15T10:12:51.609Z,170
2018-09-15T10:13:52.197Z,175
2018-09-15T10:14:52.779Z,175
2018-09-15T10:15:53.403Z,180
2018-09-15T10:16:53.942Z,190
2018-09-15T10:17:54.532Z,195
2018-09-15T10:18:55.175Z,205
2018-09-15T10:19:55.791Z,210
2018-09-15T10:20:56.381Z,220
2018-09-15T10:21:56.969Z,235
2018-09-15T10:22:57.599Z,245
2018-09-15T10:23:58.188Z,240
2018-09-15T10:25:43.176Z,280
2018-09-15T10:26:43.765Z,745
2018-09-15T10:27:44.354Z,1165
2018-09-15T10:28:44.945Z,1185
2018-09-15T10:29:45.534Z,1145
2018-09-15T10:30:59.885Z,1180
2018-09-15T10:32:00.555Z,1225
2018-09-15T10:33:01.119Z,1190
2018-09-15T10:34:01.716Z,1205
2018-09-15T10:35:02.315Z,1245
2018-09-15T10:36:02.912Z,1285
2018-09-15T10:37:03.514Z,1285
2018-09-15T10:38:04.113Z,1285
2018-09-15T10:39:04.758Z,1330
2018-09-15T10:40:05.349Z,1295
2018-09-15T10:41:05.996Z,1320
2018-09-15T10:42:06.647Z,1355
2018-09-15T10:43:07.244Z,1320
2018-09-15T10:45:08.492Z,1375
2018-09-15T10:46:09.100Z,1345
2018-09-15T10:47:09.731Z,1340
2018-09-15T10:48:10.379Z,1260
2018-09-15T10:49:10.973Z,1200
2018-09-15T10:51:27.045Z,1235
2018-09-15T10:52:27.718Z,1240
2018-09-15T10:53:28.220Z,1315
2018-09-15T10:54:28.813Z,1305
2018-09-15T10:55:43.167Z,1215
2018-09-15T10:56:43.762Z,1235
2018-09-15T10:57:44.349Z,1210
2018-09-15T10:58:44.951Z,1165
2018-09-15T10:59:45.593Z,1155
2018-09-15T11:00:46.280Z,1185
2018-09-15T11:01:46.847Z,1065
2018-09-15T11:02:47.449Z,1120
2018-09-15T11:03:48.046Z,1060
2018-09-15T11:04:48.650Z,1195
2018-09-15T11:05:49.333Z,795
2018-09-15T11:06:49.894Z,890
2018-09-15T11:07:50.544Z,880
2018-09-15T11:08:51.193Z,805
2018-09-15T11:09:51.787Z,1000
2018-09-15T11:10:52.385Z,730
2018-09-15T11:11:52.985Z,775
2018-09-15T11:12:53.583Z,685
2018-09-15T11:13:54.185Z,310
2018-09-15T11:14:54.779Z,655
2018-09-15T11:15:55.377Z,520
2018-09-15T11:16:56.026Z,495
2018-09-15T11:17:56.665Z,785
2018-09-15T11:19:41.782Z,600
2018-09-15T11:20:42.379Z,275
2018-09-15T11:21:42.978Z,270
2018-09-15T11:23:45.166Z,340
2018-09-15T11:24:45.764Z,410
2018-09-15T11:25:46.363Z,440
2018-09-15T11:26:47.011Z,280
2018-09-15T11:27:47.608Z,265
2018-09-15T11:28:48.318Z,255
2018-09-15T11:29:48.897Z,275
2018-09-15T11:30:49.640Z,325
2018-09-15T11:31:50.338Z,360
2018-09-15T11:32:51.134Z,270
2018-09-15T11:33:51.724Z,230
2018-09-15T11:34:52.320Z,260
2018-09-15T11:35:52.919Z,430
2018-09-15T11:36:53.516Z,245
2018-09-15T11:37:54.154Z,240
2018-09-15T11:38:54.752Z,225
2018-09-15T11:39:55.347Z,185
2018-09-15T11:40:55.939Z,185
2018-09-15T11:41:56.576Z,285
2018-09-15T11:43:41.747Z,390
2018-09-15T11:44:42.290Z,470
2018-09-15T11:45:42.937Z,465
2018-09-15T11:46:43.536Z,350
2018-09-15T11:47:44.136Z,310
2018-09-15T11:48:44.732Z,220
2018-09-15T11:49:45.326Z,265
2018-09-15T11:50:45.974Z,355
2018-09-15T11:51:46.619Z,445
2018-09-15T11:52:47.216Z,180
2018-09-15T11:53:47.855Z,225
2018-09-15T11:54:48.406Z,175
2018-09-15T11:55:49.049Z,285
2018-09-15T11:56:49.643Z,180
2018-09-15T11:57:50.239Z,165
2018-09-15T11:58:50.870Z,235
2018-09-15T11:59:51.679Z,330
2018-09-15T12:00:52.311Z,290
2018-09-15T12:02:54.482Z,245
2018-09-15T12:03:55.068Z,175
2018-09-15T12:04:55.666Z,190
2018-09-15T12:05:56.251Z,215
2018-09-15T12:07:41.376Z,240
2018-09-15T12:08:41.963Z,320
2018-09-15T12:09:42.562Z,450
2018-09-15T12:10:43.208Z,235
2018-09-15T12:11:43.855Z,240
2018-09-15T12:12:44.453Z,200
2018-09-15T12:13:45.094Z,275
2018-09-15T12:14:45.688Z,385
2018-09-15T12:15:46.281Z,300
2018-09-15T12:16:46.876Z,320
2018-09-15T12:17:47.469Z,435
2018-09-15T12:18:48.066Z,670
2018-09-15T12:19:48.658Z,515
2018-09-15T12:20:49.254Z,580
2018-09-15T12:21:49.874Z,365
2018-09-15T12:22:50.436Z,325
2018-09-15T12:23:51.034Z,335
2018-09-15T12:24:51.630Z,345
2018-09-15T12:25:52.225Z,390
2018-09-15T12:26:52.868Z,300
2018-09-15T12:27:53.526Z,600
2018-09-15T12:28:54.059Z,315
2018-09-15T12:29:54.695Z,295
2018-09-15T12:31:39.859Z,405
2018-09-15T12:32:40.455Z,215
2018-09-15T12:33:41.120Z,240
2018-09-15T12:34:41.693Z,165
2018-09-15T12:35:42.289Z,200
2018-09-15T12:36:42.884Z,205
2018-09-15T12:37:43.481Z,220
2018-09-15T12:38:44.076Z,250
2018-09-15T12:39:44.670Z,170
2018-09-15T12:40:45.262Z,225
2018-09-15T12:41:45.853Z,265
2018-09-15T12:42:46.448Z,305
2018-09-15T12:43:47.050Z,215
2018-09-15T12:44:47.638Z,185
2018-09-15T12:45:48.277Z,185
2018-09-15T12:46:48.925Z,190
2018-09-15T12:47:49.519Z,230
2018-09-15T12:48:50.113Z,215
2018-09-15T12:49:50.753Z,255
2018-09-15T12:50:51.352Z,365
2018-09-15T12:51:52.009Z,205
2018-09-15T12:52:52.542Z,170
2018-09-15T12:55:39.061Z,175
2018-09-15T12:56:39.650Z,190
2018-09-15T12:57:40.281Z,175
2018-09-15T12:58:40.832Z,175
2018-09-15T12:59:41.429Z,195
2018-09-15T13:00:42.026Z,215
2018-09-15T13:01:42.620Z,245
2018-09-15T13:02:43.216Z,170
2018-09-15T13:03:43.812Z,160
2018-09-15T13:05:46.427Z,195
2018-09-15T13:06:47.067Z,255
2018-09-15T13:07:47.652Z,355
2018-09-15T13:08:48.239Z,585
2018-09-15T13:09:48.971Z,290
2018-09-15T13:10:49.563Z,280
2018-09-15T13:11:50.195Z,265
2018-09-15T13:12:50.779Z,150
2018-09-15T13:13:51.361Z,165
2018-09-15T13:14:51.988Z,170
2018-09-15T13:15:52.580Z,210
2018-09-15T13:16:53.171Z,145
2018-09-15T13:17:53.765Z,170
2018-09-15T13:19:38.878Z,180
2018-09-15T13:20:39.475Z,160
2018-09-15T13:21:40.115Z,150
2018-09-15T13:22:40.706Z,135
2018-09-15T13:23:41.355Z,130
2018-09-15T13:24:41.892Z,135
2018-09-15T13:25:42.531Z,155
2018-09-15T13:28:46.322Z,180
2018-09-15T13:29:47.174Z,155
2018-09-15T13:30:47.561Z,145
2018-09-15T13:31:48.155Z,155
2018-09-15T13:32:48.756Z,175
2018-09-15T13:33:49.447Z,130
2018-09-15T13:34:50.048Z,145
2018-09-15T13:35:50.641Z,155
2018-09-15T13:36:51.435Z,150
2018-09-15T13:37:52.026Z,145
2018-09-15T13:38:52.650Z,160
2018-09-15T13:39:53.246Z,175
2018-09-15T13:40:53.829Z,170
2018-09-15T13:41:54.421Z,155
2018-09-15T13:43:39.580Z,150
2018-09-15T13:44:40.227Z,150
2018-09-15T13:45:40.768Z,160
2018-09-15T13:46:41.380Z,150
2018-09-15T13:47:41.948Z,135
2018-09-15T13:48:42.550Z,135
2018-09-15T13:49:43.133Z,145
2018-09-15T13:50:43.726Z,150
2018-09-15T13:51:44.317Z,165
2018-09-15T13:52:44.906Z,170
2018-09-15T13:53:45.496Z,155
2018-09-15T13:54:46.140Z,145
2018-09-15T13:55:46.785Z,150
2018-09-15T13:56:47.379Z,170
2018-09-15T13:57:47.965Z,155
2018-09-15T13:58:48.656Z,145
2018-09-15T13:59:49.208Z,140
2018-09-15T14:00:49.797Z,155
2018-09-15T14:01:50.391Z,150
2018-09-15T14:02:50.985Z,160
2018-09-15T14:03:51.574Z,150
2018-09-15T14:04:52.297Z,150
2018-09-15T14:05:52.799Z,155
2018-09-15T14:07:37.962Z,145
2018-09-15T14:08:38.556Z,160
2018-09-15T14:09:43.476Z,155
2018-09-15T14:10:39.765Z,130
2018-09-15T14:11:40.339Z,140
2018-09-15T14:12:40.930Z,120
2018-09-15T14:13:41.525Z,115
2018-09-15T14:14:42.168Z,130
2018-09-15T14:15:42.764Z,115
2018-09-15T14:16:43.681Z,115
2018-09-15T14:17:44.240Z,110
2018-09-15T14:18:44.839Z,120
2018-09-15T14:19:45.427Z,125
2018-09-15T14:20:46.019Z,95
2018-09-15T14:21:46.606Z,90
2018-09-15T14:22:47.194Z,95
2018-09-15T14:23:47.788Z,100
2018-09-15T14:24:48.383Z,105
2018-09-15T14:25:48.971Z,110
2018-09-15T14:26:49.616Z,95
2018-09-15T14:27:50.206Z,90
2018-09-15T14:28:50.788Z,85
2018-09-15T14:29:51.379Z,85
2018-09-15T14:31:36.488Z,85
2018-09-15T14:32:37.173Z,80
2018-09-15T14:33:37.765Z,85
2018-09-15T14:34:38.422Z,105
2018-09-15T14:35:38.948Z,100
2018-09-15T14:36:39.591Z,100
2018-09-15T14:37:40.178Z,90
2018-09-15T14:38:40.846Z,85
2018-09-15T14:39:41.452Z,85
2018-09-15T14:40:42.084Z,85
2018-09-15T14:41:42.676Z,85
2018-09-15T14:42:43.331Z,90
2018-09-15T14:43:43.904Z,85
2018-09-15T14:44:44.497Z,85
2018-09-15T14:45:45.081Z,85
2018-09-15T14:46:45.666Z,85
2018-09-15T14:47:46.260Z,90
2018-09-15T14:48:46.849Z,95
2018-09-15T14:49:47.440Z,90
2018-09-15T14:50:48.074Z,85
2018-09-15T14:51:48.716Z,85
2018-09-15T14:52:49.354Z,85
2018-09-15T14:53:49.940Z,85
2018-09-15T14:55:35.151Z,85
2018-09-15T14:56:35.743Z,95
2018-09-15T14:57:36.335Z,105
2018-09-15T14:58:36.929Z,130
2018-09-15T14:59:37.524Z,160
2018-09-15T15:00:38.157Z,120
2018-09-15T15:01:38.768Z,105
2018-09-15T15:02:39.302Z,110
2018-09-15T15:03:39.894Z,110
2018-09-15T15:04:40.483Z,85